Time;durP1;ratioP1;P1;durP2;ratioP2;P2;SDS_P1;SDS_P2;PMS_P1;PMS_P2;Temp;Humidity;BMP_temperature;BMP_pressure;BME280_temperature;BME280_humidity;BME280_pressure;Samples;Min_cycle;Max_cycle;Signal;HPM_P1;HPM_P2
2022/05/09 00:00:21;0.00;0.00;0.62;0.00;0.00;0.62;2.30;1.60;;;28.50;21.80;;;;;;2247871;61;20364;-58
2022/05/09 00:03:06;0.00;0.00;0.62;0.00;0.00;0.62;2.10;1.20;;;28.50;21.80;;;;;;2248223;61;20478;-60
2022/05/09 00:05:52;0.00;0.00;0.62;0.00;0.00;0.62;2.87;1.37;;;28.50;21.80;;;;;;2250670;61;20360;-62
2022/05/09 00:08:37;0.00;0.00;0.62;0.00;0.00;0.62;1.80;1.10;;;28.50;21.80;;;;;;2247690;61;20387;-61
2022/05/09 00:11:24;0.00;0.00;0.62;0.00;0.00;0.62;2.00;1.30;;;28.50;21.90;;;;;;2247958;61;20367;-61
2022/05/09 00:14:11;0.00;0.00;0.62;0.00;0.00;0.62;3.60;1.30;;;28.50;21.90;;;;;;2248417;61;20451;-61
2022/05/09 00:16:56;0.00;0.00;0.62;0.00;0.00;0.62;1.83;1.10;;;28.50;21.90;;;;;;2247664;61;20411;-60
2022/05/09 00:19:41;0.00;0.00;0.62;0.00;0.00;0.62;2.10;1.20;;;28.40;21.90;;;;;;2248164;61;20448;-62
2022/05/09 00:22:27;0.00;0.00;0.62;0.00;0.00;0.62;2.50;1.10;;;28.40;21.90;;;;;;2247714;61;20363;-62
2022/05/09 00:25:11;0.00;0.00;0.62;0.00;0.00;0.62;1.80;1.20;;;28.40;21.90;;;;;;2247965;61;20360;-62
2022/05/09 00:27:55;0.00;0.00;0.62;0.00;0.00;0.62;2.03;1.13;;;28.40;21.90;;;;;;2248020;61;20359;-62
2022/05/09 00:30:40;0.00;0.00;0.62;0.00;0.00;0.62;2.10;1.03;;;28.40;22.00;;;;;;2247142;61;20920;-62
2022/05/09 00:33:26;0.00;0.00;0.62;0.00;0.00;0.62;1.90;1.10;;;28.40;22.00;;;;;;2247982;61;20379;-63
2022/05/09 00:36:10;0.00;0.00;0.62;0.00;0.00;0.62;1.87;1.20;;;28.40;22.00;;;;;;2248184;61;20479;-63
2022/05/09 00:38:58;0.00;0.00;0.62;0.00;0.00;0.62;2.03;1.20;;;28.40;22.00;;;;;;2248037;61;20390;-61
2022/05/09 00:41:44;0.00;0.00;0.62;0.00;0.00;0.62;2.13;1.00;;;28.40;22.10;;;;;;2247743;61;20427;-63
2022/05/09 00:44:28;0.00;0.00;0.62;0.00;0.00;0.62;1.50;0.90;;;28.40;22.00;;;;;;2247743;61;20422;-63
2022/05/09 00:47:13;0.00;0.00;0.62;0.00;0.00;0.62;1.90;1.37;;;28.40;22.60;;;;;;2248017;61;20364;-63
2022/05/09 00:50:01;0.00;0.00;0.62;0.00;0.00;0.62;2.77;1.30;;;28.40;22.10;;;;;;2248136;61;20367;-59
2022/05/09 00:52:52;0.00;0.00;0.62;0.00;0.00;0.62;1.90;1.40;;;28.40;22.10;;;;;;2247324;61;20367;-59
2022/05/09 00:55:45;0.00;0.00;0.62;0.00;0.00;0.62;2.23;1.53;;;28.40;22.00;;;;;;2248202;61;20865;-58
2022/05/09 00:58:37;0.00;0.00;0.62;0.00;0.00;0.62;2.33;1.63;;;28.40;21.90;;;;;;2247784;61;20422;-57
2022/05/09 01:01:21;0.00;0.00;0.62;0.00;0.00;0.62;5.30;1.60;;;28.30;21.70;;;;;;2247468;61;20363;-61
2022/05/09 01:04:11;0.00;0.00;0.62;0.00;0.00;0.62;3.10;1.73;;;28.30;21.60;;;;;;2248047;61;20506;-60
2022/05/09 01:06:58;0.00;0.00;0.62;0.00;0.00;0.62;3.27;2.00;;;28.30;21.50;;;;;;2247714;61;20794;-61
2022/05/09 01:09:42;0.00;0.00;0.62;0.00;0.00;0.62;2.07;1.70;;;28.30;21.50;;;;;;2247814;61;20367;-59
2022/05/09 01:12:33;0.00;0.00;0.62;0.00;0.00;0.62;3.00;1.70;;;28.30;21.40;;;;;;2247982;61;20364;-59
2022/05/09 01:15:18;0.00;0.00;0.62;0.00;0.00;0.62;4.60;1.80;;;28.30;21.30;;;;;;2247505;61;20443;-57
2022/05/09 01:18:07;0.00;0.00;0.62;0.00;0.00;0.62;2.53;1.97;;;28.20;21.20;;;;;;2248094;61;20386;-60
2022/05/09 01:20:54;0.00;0.00;0.62;0.00;0.00;0.62;2.80;2.00;;;28.20;21.10;;;;;;2247303;61;20863;-59
2022/05/09 01:23:39;0.00;0.00;0.62;0.00;0.00;0.62;3.90;2.33;;;28.20;21.70;;;;;;2247580;61;20725;-57
2022/05/09 01:26:25;0.00;0.00;0.62;0.00;0.00;0.62;3.17;2.27;;;28.20;21.10;;;;;;2248084;61;20359;-57
2022/05/09 01:29:16;0.00;0.00;0.62;0.00;0.00;0.62;4.90;2.50;;;28.10;21.00;;;;;;2247885;61;20367;-60
2022/05/09 01:32:02;0.00;0.00;0.62;0.00;0.00;0.62;2.70;1.83;;;28.10;21.00;;;;;;2247482;61;20364;-56
2022/05/09 01:34:55;0.00;0.00;0.62;0.00;0.00;0.62;3.40;2.20;;;28.10;21.00;;;;;;2248293;61;20479;-62
2022/05/09 01:37:43;0.00;0.00;0.62;0.00;0.00;0.62;4.53;2.40;;;28.10;21.00;;;;;;2247601;61;20379;-58
2022/05/09 01:40:29;0.00;0.00;0.62;0.00;0.00;0.62;3.63;2.30;;;28.10;21.00;;;;;;2247919;61;20375;-63
2022/05/09 01:43:37;0.00;0.00;0.62;0.00;0.00;0.62;2.90;2.23;;;28.10;21.00;;;;;;2247392;61;20399;-57
2022/05/09 01:46:25;0.00;0.00;0.62;0.00;0.00;0.62;4.10;2.40;;;28.00;20.90;;;;;;2247617;61;20387;-57
2022/05/09 01:52:15;0.00;0.00;0.62;0.00;0.00;0.62;3.13;2.13;;;28.00;20.90;;;;;;2247083;61;20910;-55
2022/05/09 01:54:59;0.00;0.00;0.62;0.00;0.00;0.62;3.03;2.23;;;27.90;20.90;;;;;;2248198;61;20927;-57
2022/05/09 01:57:45;0.00;0.00;0.62;0.00;0.00;0.62;3.07;2.27;;;27.90;20.80;;;;;;2248087;61;20463;-58
2022/05/09 02:00:31;0.00;0.00;0.62;0.00;0.00;0.62;2.90;2.37;;;27.80;20.80;;;;;;2247375;61;20418;-56
2022/05/09 02:03:16;0.00;0.00;0.62;0.00;0.00;0.62;3.07;2.30;;;27.80;20.80;;;;;;2247454;61;20618;-60
2022/05/09 02:06:01;0.00;0.00;0.62;0.00;0.00;0.62;3.60;2.40;;;27.80;20.80;;;;;;2247938;61;20364;-57
2022/05/09 02:08:46;0.00;0.00;0.62;0.00;0.00;0.62;2.83;2.00;;;27.80;20.80;;;;;;2247826;61;20411;-56
2022/05/09 02:11:31;0.00;0.00;0.62;0.00;0.00;0.62;4.40;2.17;;;27.80;20.80;;;;;;2247606;61;20415;-58
2022/05/09 02:14:17;0.00;0.00;0.62;0.00;0.00;0.62;3.77;2.40;;;27.70;20.80;;;;;;2247392;61;20457;-58
2022/05/09 02:17:02;0.00;0.00;0.62;0.00;0.00;0.62;2.73;2.27;;;27.70;20.80;;;;;;2248116;61;20371;-56
2022/05/09 02:19:47;0.00;0.00;0.62;0.00;0.00;0.62;3.10;2.50;;;27.70;20.80;;;;;;2247762;61;20447;-58
2022/05/09 02:22:31;0.00;0.00;0.62;0.00;0.00;0.62;4.27;2.87;;;27.60;20.80;;;;;;2248017;61;20383;-56
2022/05/09 02:25:31;0.00;0.00;0.62;0.00;0.00;0.62;3.50;2.60;;;27.60;20.70;;;;;;2248684;61;20387;-58
2022/05/09 02:28:15;0.00;0.00;0.62;0.00;0.00;0.62;3.60;2.63;;;27.60;20.70;;;;;;2248376;61;20773;-59
2022/05/09 02:31:02;0.00;0.00;0.62;0.00;0.00;0.62;3.60;2.30;;;27.50;20.70;;;;;;2248085;61;20369;-56
2022/05/09 02:33:47;0.00;0.00;0.62;0.00;0.00;0.62;4.20;2.60;;;27.50;20.70;;;;;;2248931;61;20430;-62
2022/05/09 02:36:31;0.00;0.00;0.62;0.00;0.00;0.62;3.90;2.77;;;27.50;20.70;;;;;;2247902;61;20788;-55
2022/05/09 02:39:16;0.00;0.00;0.62;0.00;0.00;0.62;3.60;2.90;;;27.40;20.70;;;;;;2248892;61;20371;-57
2022/05/09 02:42:00;0.00;0.00;0.62;0.00;0.00;0.62;5.93;2.67;;;27.40;20.70;;;;;;2247944;61;20363;-56
2022/05/09 02:44:45;0.00;0.00;0.62;0.00;0.00;0.62;2.93;2.30;;;27.40;20.70;;;;;;2248465;61;20455;-54
2022/05/09 02:47:31;0.00;0.00;0.62;0.00;0.00;0.62;3.80;2.30;;;27.40;20.70;;;;;;2248682;61;20387;-56
2022/05/09 02:50:16;0.00;0.00;0.62;0.00;0.00;0.62;3.03;2.37;;;27.30;20.70;;;;;;2248419;61;20406;-56
2022/05/09 02:53:01;0.00;0.00;0.62;0.00;0.00;0.62;3.70;2.30;;;27.40;20.70;;;;;;2248726;61;20380;-59
2022/05/09 02:55:46;0.00;0.00;0.62;0.00;0.00;0.62;4.17;2.67;;;27.30;20.70;;;;;;2248656;61;20391;-56
2022/05/09 02:58:30;0.00;0.00;0.62;0.00;0.00;0.62;3.13;2.20;;;27.30;20.70;;;;;;2247995;61;20426;-57
2022/05/09 03:01:15;0.00;0.00;0.62;0.00;0.00;0.62;2.70;2.40;;;27.30;21.20;;;;;;2248276;61;20364;-56
2022/05/09 03:07:04;0.00;0.00;0.62;0.00;0.00;0.62;3.20;2.67;;;27.20;20.60;;;;;;2248352;61;20367;-57
2022/05/09 03:09:50;0.00;0.00;0.62;0.00;0.00;0.62;3.33;2.33;;;27.10;20.60;;;;;;2248520;61;20841;-59
2022/05/09 03:12:34;0.00;0.00;0.62;0.00;0.00;0.62;3.13;2.73;;;27.20;20.60;;;;;;2247976;61;20484;-53
2022/05/09 03:15:18;0.00;0.00;0.62;0.00;0.00;0.62;3.13;2.37;;;27.10;20.60;;;;;;2248343;61;20372;-59
2022/05/09 03:18:06;0.00;0.00;0.62;0.00;0.00;0.62;2.53;2.10;;;27.10;20.60;;;;;;2248478;61;20364;-57
2022/05/09 03:20:52;0.00;0.00;0.62;0.00;0.00;0.62;3.30;2.80;;;27.00;20.60;;;;;;2247816;61;20451;-58
2022/05/09 03:23:37;0.00;0.00;0.62;0.00;0.00;0.62;3.70;2.93;;;27.00;20.50;;;;;;2248270;61;20407;-57
2022/05/09 03:26:21;0.00;0.00;0.62;0.00;0.00;0.62;4.20;2.57;;;27.00;20.50;;;;;;2248222;61;20359;-56
2022/05/09 03:29:06;0.00;0.00;0.62;0.00;0.00;0.62;4.70;2.40;;;27.00;20.60;;;;;;2248311;61;20387;-57
2022/05/09 03:31:53;0.00;0.00;0.62;0.00;0.00;0.62;3.13;2.57;;;27.00;20.60;;;;;;2248105;61;20753;-57
2022/05/09 03:34:38;0.00;0.00;0.62;0.00;0.00;0.62;3.13;2.30;;;26.90;20.50;;;;;;2248285;61;20383;-58
2022/05/09 03:37:24;0.00;0.00;0.62;0.00;0.00;0.62;3.80;2.53;;;26.90;20.60;;;;;;2248373;61;20368;-58
2022/05/09 03:40:10;0.00;0.00;0.62;0.00;0.00;0.62;3.60;2.23;;;26.90;20.60;;;;;;2248451;61;20772;-59
2022/05/09 03:42:55;0.00;0.00;0.62;0.00;0.00;0.62;3.10;2.40;;;26.80;20.50;;;;;;2247597;61;20868;-58
2022/05/09 03:45:43;0.00;0.00;0.62;0.00;0.00;0.62;3.30;2.73;;;26.80;20.50;;;;;;2248375;61;20375;-56
2022/05/09 03:48:28;0.00;0.00;0.62;0.00;0.00;0.62;6.33;2.73;;;26.80;20.50;;;;;;2248461;61;20907;-57
2022/05/09 03:51:13;0.00;0.00;0.62;0.00;0.00;0.62;3.43;2.43;;;26.80;20.50;;;;;;2247806;61;20375;-57
2022/05/09 03:53:58;0.00;0.00;0.62;0.00;0.00;0.62;4.37;2.40;;;26.70;20.50;;;;;;2248333;61;20479;-56
2022/05/09 03:56:43;0.00;0.00;0.62;0.00;0.00;0.62;3.57;2.93;;;26.70;20.50;;;;;;2248256;61;20442;-56
2022/05/09 03:59:28;0.00;0.00;0.62;0.00;0.00;0.62;2.80;2.10;;;26.70;20.50;;;;;;2248101;61;20451;-57
2022/05/09 04:02:12;0.00;0.00;0.62;0.00;0.00;0.62;3.87;2.60;;;26.70;20.50;;;;;;2247936;61;21003;-56
2022/05/09 04:04:57;0.00;0.00;0.62;0.00;0.00;0.62;3.13;2.23;;;26.60;20.50;;;;;;2248333;61;20471;-63
2022/05/09 04:07:43;0.00;0.00;0.62;0.00;0.00;0.62;2.40;2.10;;;26.60;20.50;;;;;;2248718;61;20892;-58
2022/05/09 04:10:32;0.00;0.00;0.62;0.00;0.00;0.62;3.83;2.33;;;26.60;20.50;;;;;;2248141;61;21080;-59
2022/05/09 04:13:17;0.00;0.00;0.62;0.00;0.00;0.62;3.70;3.20;;;26.50;20.50;;;;;;2247920;61;20392;-56
2022/05/09 04:19:19;0.00;0.00;0.62;0.00;0.00;0.62;4.67;2.50;;;26.50;20.50;;;;;;2235147;62;20386;-55
2022/05/09 04:22:04;0.00;0.00;0.62;0.00;0.00;0.62;3.13;2.13;;;26.50;20.60;;;;;;2234581;62;20370;-52
2022/05/09 04:24:49;0.00;0.00;0.62;0.00;0.00;0.62;4.03;2.50;;;26.40;20.50;;;;;;2235338;62;20410;-54
2022/05/09 04:27:35;0.00;0.00;0.62;0.00;0.00;0.62;5.20;2.40;;;26.40;20.60;;;;;;2234587;62;20403;-58
2022/05/09 04:30:29;0.00;0.00;0.62;0.00;0.00;0.62;4.00;2.57;;;26.40;20.60;;;;;;2248099;61;20491;-57
2022/05/09 04:33:14;0.00;0.00;0.62;0.00;0.00;0.62;3.23;2.10;;;26.40;20.70;;;;;;2247809;61;20924;-55
2022/05/09 04:35:59;0.00;0.00;0.62;0.00;0.00;0.62;6.30;2.90;;;26.30;20.60;;;;;;2247873;61;20391;-60
2022/05/09 04:38:45;0.00;0.00;0.62;0.00;0.00;0.62;4.27;3.10;;;26.30;20.70;;;;;;2249505;61;20368;-59
2022/05/09 04:41:32;0.00;0.00;0.62;0.00;0.00;0.62;3.17;2.33;;;26.30;20.70;;;;;;2243494;61;20937;-56
2022/05/09 04:44:18;0.00;0.00;0.62;0.00;0.00;0.62;3.17;2.20;;;26.30;20.70;;;;;;2244061;61;20389;-58
2022/05/09 04:47:03;0.00;0.00;0.62;0.00;0.00;0.62;3.37;2.40;;;26.30;20.70;;;;;;2243804;61;20361;-58
2022/05/09 04:49:47;0.00;0.00;0.62;0.00;0.00;0.62;3.10;2.23;;;26.30;20.80;;;;;;2243783;61;20463;-59
2022/05/09 04:52:32;0.00;0.00;0.62;0.00;0.00;0.62;3.67;2.17;;;26.20;20.70;;;;;;2243830;61;20379;-62
2022/05/09 04:55:17;0.00;0.00;0.62;0.00;0.00;0.62;3.60;2.30;;;26.20;20.80;;;;;;2243789;61;20828;-57
2022/05/09 04:58:01;0.00;0.00;0.62;0.00;0.00;0.62;3.73;2.63;;;26.20;20.80;;;;;;2243873;61;20366;-59
2022/05/09 05:00:48;0.00;0.00;0.62;0.00;0.00;0.62;3.93;2.13;;;26.20;20.80;;;;;;2243835;61;20373;-57
2022/05/09 05:03:36;0.00;0.00;0.62;0.00;0.00;0.62;2.27;2.07;;;26.20;20.80;;;;;;2244024;61;20400;-60
2022/05/09 05:06:21;0.00;0.00;0.62;0.00;0.00;0.62;3.90;2.30;;;26.20;20.90;;;;;;2244191;61;20767;-58
2022/05/09 05:09:05;0.00;0.00;0.62;0.00;0.00;0.62;3.57;2.50;;;26.20;20.90;;;;;;2243674;61;20452;-57
2022/05/09 05:11:50;0.00;0.00;0.62;0.00;0.00;0.62;3.00;1.80;;;26.10;20.80;;;;;;2243071;61;20404;-56
2022/05/09 05:14:35;0.00;0.00;0.62;0.00;0.00;0.62;3.80;2.30;;;26.10;20.80;;;;;;2244239;61;20875;-56
2022/05/09 05:17:21;0.00;0.00;0.62;0.00;0.00;0.62;3.80;2.20;;;26.10;20.80;;;;;;2244165;61;20364;-55
2022/05/09 05:20:09;0.00;0.00;0.62;0.00;0.00;0.62;3.67;2.33;;;26.10;20.90;;;;;;2244070;61;20368;-58
2022/05/09 05:22:55;0.00;0.00;0.62;0.00;0.00;0.62;3.43;2.20;;;26.10;20.90;;;;;;2244277;61;20459;-57
2022/05/09 05:25:41;0.00;0.00;0.62;0.00;0.00;0.62;4.10;2.10;;;26.10;20.90;;;;;;2244211;61;20377;-56
2022/05/09 05:28:27;0.00;0.00;0.62;0.00;0.00;0.62;4.27;2.37;;;26.00;20.90;;;;;;2244232;61;20431;-57
2022/05/09 05:31:14;0.00;0.00;0.62;0.00;0.00;0.62;2.43;2.10;;;26.00;20.90;;;;;;2243923;61;20823;-58
2022/05/09 05:34:00;0.00;0.00;0.62;0.00;0.00;0.62;5.57;2.50;;;26.00;20.90;;;;;;2243844;61;20955;-51
2022/05/09 05:36:45;0.00;0.00;0.62;0.00;0.00;0.62;3.00;2.20;;;26.00;20.90;;;;;;2244222;61;20388;-57
2022/05/09 05:39:34;0.00;0.00;0.62;0.00;0.00;0.62;3.77;2.47;;;26.00;20.90;;;;;;2244450;61;20817;-54
2022/05/09 05:42:19;0.00;0.00;0.62;0.00;0.00;0.62;3.67;2.40;;;26.00;20.90;;;;;;2243490;61;20365;-56
2022/05/09 05:45:05;0.00;0.00;0.62;0.00;0.00;0.62;3.50;2.10;;;26.00;20.90;;;;;;2244370;61;20408;-52
2022/05/09 05:47:51;0.00;0.00;0.62;0.00;0.00;0.62;2.70;1.80;;;26.00;20.90;;;;;;2244151;61;20412;-58
2022/05/09 05:50:38;0.00;0.00;0.62;0.00;0.00;0.62;2.93;2.10;;;26.00;20.90;;;;;;2243414;61;20360;-58
2022/05/09 05:53:23;0.00;0.00;0.62;0.00;0.00;0.62;4.40;2.63;;;26.00;20.90;;;;;;2244031;61;21045;-58
2022/05/09 05:56:07;0.00;0.00;0.62;0.00;0.00;0.62;3.10;2.03;;;26.00;21.00;;;;;;2243860;61;20395;-58
2022/05/09 05:58:52;0.00;0.00;0.62;0.00;0.00;0.62;5.53;2.60;;;25.90;20.90;;;;;;2244867;61;20901;-57
2022/05/09 06:01:37;0.00;0.00;0.62;0.00;0.00;0.62;2.70;2.10;;;25.90;21.00;;;;;;2244084;61;20640;-52
2022/05/09 06:04:22;0.00;0.00;0.62;0.00;0.00;0.62;4.30;2.40;;;25.90;21.00;;;;;;2244247;61;20511;-57
2022/05/09 06:07:08;0.00;0.00;0.62;0.00;0.00;0.62;2.57;2.03;;;25.90;21.00;;;;;;2244743;61;20404;-53
2022/05/09 06:09:53;0.00;0.00;0.62;0.00;0.00;0.62;3.30;2.40;;;25.90;21.00;;;;;;2244731;61;20368;-58
2022/05/09 06:12:38;0.00;0.00;0.62;0.00;0.00;0.62;4.63;2.30;;;25.90;21.00;;;;;;2244114;61;20416;-56
2022/05/09 06:15:25;0.00;0.00;0.62;0.00;0.00;0.62;4.00;2.47;;;25.90;21.00;;;;;;2244273;61;20947;-55
2022/05/09 06:18:14;0.00;0.00;0.62;0.00;0.00;0.62;4.40;3.00;;;25.90;20.90;;;;;;2244710;61;20834;-58
2022/05/09 06:20:58;0.00;0.00;0.62;0.00;0.00;0.62;3.20;2.20;;;25.80;20.80;;;;;;2244574;61;20389;-54
2022/05/09 06:23:45;0.00;0.00;0.62;0.00;0.00;0.62;4.60;2.27;;;25.80;20.90;;;;;;2244690;61;20396;-56
2022/05/09 06:26:30;0.00;0.00;0.62;0.00;0.00;0.62;9.57;2.93;;;25.80;20.90;;;;;;2244132;61;20365;-56
2022/05/09 06:29:14;0.00;0.00;0.62;0.00;0.00;0.62;5.30;2.90;;;25.80;20.80;;;;;;2244127;61;20909;-57
2022/05/09 06:31:59;0.00;0.00;0.62;0.00;0.00;0.62;3.80;2.23;;;25.80;20.70;;;;;;2243566;61;20512;-58
2022/05/09 06:34:44;0.00;0.00;0.62;0.00;0.00;0.62;5.70;2.60;;;25.80;20.60;;;;;;2244248;61;20428;-55
2022/05/09 06:37:32;0.00;0.00;0.62;0.00;0.00;0.62;3.20;2.33;;;25.70;20.50;;;;;;2244925;61;20376;-55
2022/05/09 06:40:18;0.00;0.00;0.62;0.00;0.00;0.62;5.00;2.93;;;25.70;20.60;;;;;;2244191;61;20368;-56
2022/05/09 06:43:03;0.00;0.00;0.62;0.00;0.00;0.62;4.13;2.77;;;25.70;20.50;;;;;;2244941;61;20392;-56
2022/05/09 06:45:51;0.00;0.00;0.62;0.00;0.00;0.62;3.70;2.60;;;25.70;20.50;;;;;;2247317;61;20881;-55
2022/05/09 06:48:37;0.00;0.00;0.62;0.00;0.00;0.62;5.00;3.90;;;25.60;20.40;;;;;;2244530;61;20380;-65
2022/05/09 06:51:22;0.00;0.00;0.62;0.00;0.00;0.62;5.23;2.97;;;25.60;20.40;;;;;;2243792;61;20396;-64
2022/05/09 06:54:07;0.00;0.00;0.62;0.00;0.00;0.62;4.63;2.80;;;25.60;20.50;;;;;;2243743;61;20396;-64
2022/05/09 06:56:53;0.00;0.00;0.62;0.00;0.00;0.62;4.37;2.50;;;25.60;20.50;;;;;;2244140;61;20451;-62
2022/05/09 06:59:37;0.00;0.00;0.62;0.00;0.00;0.62;4.03;2.43;;;25.60;20.50;;;;;;2244426;61;20375;-64
2022/05/09 07:02:23;0.00;0.00;0.62;0.00;0.00;0.62;7.70;3.80;;;25.60;20.50;;;;;;2243987;61;20424;-66
2022/05/09 07:05:11;0.00;0.00;0.62;0.00;0.00;0.62;3.90;3.00;;;25.60;20.50;;;;;;2242689;61;20392;-58
2022/05/09 07:07:57;0.00;0.00;0.62;0.00;0.00;0.62;5.20;2.90;;;25.60;20.50;;;;;;2244204;61;20359;-63
2022/05/09 07:10:43;0.00;0.00;0.62;0.00;0.00;0.62;6.80;3.50;;;25.60;20.50;;;;;;2246725;61;20766;-64
2022/05/09 07:13:29;0.00;0.00;0.62;0.00;0.00;0.62;6.50;3.10;;;25.60;20.30;;;;;;2244467;61;20443;-65
2022/05/09 07:16:13;0.00;0.00;0.62;0.00;0.00;0.62;4.00;2.90;;;25.50;20.00;;;;;;2472669;53;20393;-65
2022/05/09 07:18:58;0.00;0.00;0.62;0.00;0.00;0.62;4.53;2.80;;;25.50;20.00;;;;;;2240559;61;20822;-64
2022/05/09 07:21:43;0.00;0.00;0.62;0.00;0.00;0.62;4.17;2.97;;;25.50;20.10;;;;;;2239956;61;20378;-60
2022/05/09 07:24:28;0.00;0.00;0.62;0.00;0.00;0.62;7.23;2.97;;;25.50;20.20;;;;;;2240958;61;20821;-59
2022/05/09 07:27:13;0.00;0.00;0.62;0.00;0.00;0.62;6.00;2.80;;;25.50;20.30;;;;;;2240438;61;20368;-64
2022/05/09 07:29:59;0.00;0.00;0.62;0.00;0.00;0.62;4.13;2.50;;;25.50;20.30;;;;;;2240663;61;20957;-64
2022/05/09 07:32:46;0.00;0.00;0.62;0.00;0.00;0.62;4.40;2.90;;;25.50;20.40;;;;;;2240568;61;20831;-66
2022/05/09 07:35:34;0.00;0.00;0.62;0.00;0.00;0.62;4.43;2.80;;;25.50;20.40;;;;;;2240654;61;20981;-55
2022/05/09 07:38:19;0.00;0.00;0.62;0.00;0.00;0.62;3.10;2.30;;;25.50;20.50;;;;;;2240678;61;20441;-58
2022/05/09 07:41:03;0.00;0.00;0.62;0.00;0.00;0.62;3.73;2.60;;;25.50;20.50;;;;;;2240144;61;20405;-53
2022/05/09 07:43:49;0.00;0.00;0.62;0.00;0.00;0.62;3.60;2.30;;;25.50;20.50;;;;;;2240822;61;20389;-57
2022/05/09 07:46:36;0.00;0.00;0.62;0.00;0.00;0.62;3.10;2.07;;;25.50;20.50;;;;;;2240849;61;20930;-57
2022/05/09 07:49:20;0.00;0.00;0.62;0.00;0.00;0.62;5.90;2.77;;;25.60;20.60;;;;;;2240841;61;20377;-55
2022/05/09 07:52:07;0.00;0.00;0.62;0.00;0.00;0.62;4.60;3.53;;;25.50;20.60;;;;;;2239888;61;20448;-60
2022/05/09 07:54:52;0.00;0.00;0.62;0.00;0.00;0.62;3.97;2.70;;;25.60;20.60;;;;;;2240661;61;20889;-61
2022/05/09 07:57:36;0.00;0.00;0.62;0.00;0.00;0.62;3.93;3.03;;;25.60;20.70;;;;;;2240532;61;20462;-55
2022/05/09 08:00:21;0.00;0.00;0.62;0.00;0.00;0.62;4.97;3.20;;;25.60;20.70;;;;;;2240433;61;20377;-56
2022/05/09 08:03:15;0.00;0.00;0.62;0.00;0.00;0.62;6.77;4.07;;;25.60;20.70;;;;;;2240407;61;20432;-56
2022/05/09 08:06:02;0.00;0.00;0.62;0.00;0.00;0.62;4.53;3.13;;;25.70;20.70;;;;;;2240565;61;20365;-66
2022/05/09 08:08:48;0.00;0.00;0.62;0.00;0.00;0.62;4.53;3.57;;;25.70;20.70;;;;;;2240707;61;20466;-55
2022/05/09 08:11:33;0.00;0.00;0.62;0.00;0.00;0.62;5.30;3.53;;;25.70;20.70;;;;;;2240116;61;20365;-64
2022/05/09 08:14:17;0.00;0.00;0.62;0.00;0.00;0.62;3.77;2.93;;;25.70;20.70;;;;;;2241070;61;20440;-59
2022/05/09 08:17:03;0.00;0.00;0.62;0.00;0.00;0.62;6.03;3.50;;;25.70;20.70;;;;;;2244802;61;20396;-66
2022/05/09 08:19:55;0.00;0.00;0.62;0.00;0.00;0.62;3.70;3.07;;;25.70;20.70;;;;;;2249186;61;20404;-57
2022/05/09 08:22:41;0.00;0.00;0.62;0.00;0.00;0.62;6.10;3.07;;;25.70;20.80;;;;;;2243920;61;20728;-59
2022/05/09 08:25:25;0.00;0.00;0.62;0.00;0.00;0.62;3.87;3.37;;;25.70;20.80;;;;;;2244369;61;20368;-56
2022/05/09 08:28:11;0.00;0.00;0.62;0.00;0.00;0.62;4.70;3.00;;;25.80;20.80;;;;;;2244693;61;20513;-54
2022/05/09 08:30:57;0.00;0.00;0.62;0.00;0.00;0.62;3.57;3.00;;;25.80;20.80;;;;;;2244077;61;20400;-66
2022/05/09 08:33:42;0.00;0.00;0.62;0.00;0.00;0.62;4.40;2.73;;;25.80;20.80;;;;;;2244282;61;20471;-66
2022/05/09 08:36:48;0.00;0.00;0.62;0.00;0.00;0.62;2.90;2.60;;;25.80;20.80;;;;;;2244122;61;20658;-60
2022/05/09 08:39:32;0.00;0.00;0.62;0.00;0.00;0.62;3.90;2.50;;;25.80;20.70;;;;;;2243710;61;20368;-56
2022/05/09 08:42:22;0.00;0.00;0.62;0.00;0.00;0.62;4.70;2.90;;;25.80;20.80;;;;;;2243830;61;20965;-58
2022/05/09 08:45:29;0.00;0.00;0.62;0.00;0.00;0.62;4.07;2.70;;;25.80;20.80;;;;;;2244063;61;20368;-58
2022/05/09 08:48:47;0.00;0.00;0.62;0.00;0.00;0.62;5.53;3.13;;;25.90;20.80;;;;;;2244005;61;20367;-59
2022/05/09 08:51:46;0.00;0.00;0.62;0.00;0.00;0.62;5.40;3.30;;;25.90;20.80;;;;;;2243534;61;20364;-58
2022/05/09 08:54:31;0.00;0.00;0.62;0.00;0.00;0.62;4.10;3.10;;;25.90;20.80;;;;;;2244024;61;20489;-59
2022/05/09 08:57:20;0.00;0.00;0.62;0.00;0.00;0.62;3.80;2.63;;;25.90;20.80;;;;;;2244233;61;20396;-58
2022/05/09 09:00:12;0.00;0.00;0.62;0.00;0.00;0.62;4.17;3.00;;;25.90;20.70;;;;;;2244271;61;20364;-54
2022/05/09 09:03:06;0.00;0.00;0.62;0.00;0.00;0.62;4.20;2.83;;;26.00;20.80;;;;;;2243906;61;20452;-64
2022/05/09 09:05:54;0.00;0.00;0.62;0.00;0.00;0.62;4.57;2.67;;;26.00;20.80;;;;;;2243507;61;20411;-65
2022/05/09 09:09:02;0.00;0.00;0.62;0.00;0.00;0.62;4.73;2.70;;;26.00;20.80;;;;;;2244147;61;20372;-63
2022/05/09 09:11:57;0.00;0.00;0.62;0.00;0.00;0.62;3.10;2.80;;;26.00;20.90;;;;;;2243698;61;20372;-62
2022/05/09 09:14:55;0.00;0.00;0.62;0.00;0.00;0.62;5.23;2.70;;;26.00;20.90;;;;;;2244102;61;20865;-56
2022/05/09 09:18:10;0.00;0.00;0.62;0.00;0.00;0.62;3.93;2.83;;;26.10;21.00;;;;;;2244173;61;20396;-57
2022/05/09 09:21:03;0.00;0.00;0.62;0.00;0.00;0.62;4.40;3.13;;;26.00;21.00;;;;;;2243485;61;20427;-58
2022/05/09 09:24:13;0.00;0.00;0.62;0.00;0.00;0.62;3.90;3.10;;;26.10;21.00;;;;;;2243990;61;20385;-61
2022/05/09 09:27:08;0.00;0.00;0.62;0.00;0.00;0.62;3.50;2.70;;;26.10;21.10;;;;;;2244139;61;20468;-61
2022/05/09 09:29:57;0.00;0.00;0.62;0.00;0.00;0.62;5.37;2.97;;;26.10;21.10;;;;;;2244439;61;20877;-59
2022/05/09 09:32:45;0.00;0.00;0.62;0.00;0.00;0.62;4.30;3.10;;;26.20;21.20;;;;;;2243972;61;20396;-63
2022/05/09 09:35:46;0.00;0.00;0.62;0.00;0.00;0.62;5.37;4.20;;;26.20;21.20;;;;;;2243351;61;20451;-63
2022/05/09 09:38:42;0.00;0.00;0.62;0.00;0.00;0.62;4.53;3.20;;;26.20;21.20;;;;;;2244241;61;20437;-63
2022/05/09 09:41:32;0.00;0.00;0.62;0.00;0.00;0.62;5.73;4.10;;;26.30;21.30;;;;;;2243516;61;20576;-63
2022/05/09 09:44:19;0.00;0.00;0.62;0.00;0.00;0.62;5.03;3.27;;;26.30;21.30;;;;;;2244292;61;20844;-65
2022/05/09 09:47:11;0.00;0.00;0.62;0.00;0.00;0.62;5.80;3.60;;;26.30;21.30;;;;;;2244145;61;20896;-64
2022/05/09 09:50:14;0.00;0.00;0.62;0.00;0.00;0.62;5.50;3.10;;;26.30;21.30;;;;;;2243769;61;20361;-64
2022/05/09 09:53:01;0.00;0.00;0.62;0.00;0.00;0.62;5.13;3.33;;;26.30;21.20;;;;;;2471339;53;20842;-63
2022/05/09 09:55:59;0.00;0.00;0.62;0.00;0.00;0.62;4.73;2.87;;;26.30;21.10;;;;;;2240540;61;20537;-63
2022/05/09 09:58:47;0.00;0.00;0.62;0.00;0.00;0.62;5.40;3.50;;;26.30;21.10;;;;;;2240203;61;20812;-60
2022/05/09 10:01:33;0.00;0.00;0.62;0.00;0.00;0.62;3.63;2.70;;;26.40;21.20;;;;;;2239663;61;20810;-57
2022/05/09 10:04:27;0.00;0.00;0.62;0.00;0.00;0.62;4.90;3.37;;;26.40;21.20;;;;;;2240176;61;20444;-61
2022/05/09 10:07:16;0.00;0.00;0.62;0.00;0.00;0.62;3.37;2.70;;;26.40;21.10;;;;;;2241035;61;20915;-61
2022/05/09 10:10:10;0.00;0.00;0.62;0.00;0.00;0.62;4.20;2.90;;;26.40;21.70;;;;;;2240600;61;20373;-57
2022/05/09 10:12:57;0.00;0.00;0.62;0.00;0.00;0.62;4.40;3.10;;;26.50;21.20;;;;;;2240074;61;20888;-58
2022/05/09 10:15:45;0.00;0.00;0.62;0.00;0.00;0.62;3.53;2.10;;;26.50;21.10;;;;;;2240309;61;20447;-64
2022/05/09 10:18:32;0.00;0.00;0.62;0.00;0.00;0.62;4.23;2.77;;;26.50;21.10;;;;;;2240419;61;20512;-62
2022/05/09 10:24:47;0.00;0.00;0.62;0.00;0.00;0.62;4.37;2.80;;;26.60;21.10;;;;;;2239953;61;20405;-62
2022/05/09 10:27:33;0.00;0.00;0.62;0.00;0.00;0.62;5.33;3.03;;;26.60;21.10;;;;;;2240119;61;20446;-57
2022/05/09 10:30:32;0.00;0.00;0.62;0.00;0.00;0.62;4.53;2.80;;;26.60;21.20;;;;;;2240067;61;20377;-57
2022/05/09 10:33:31;0.00;0.00;0.62;0.00;0.00;0.62;3.57;2.73;;;26.60;21.20;;;;;;2239876;61;20389;-54
2022/05/09 10:36:23;0.00;0.00;0.62;0.00;0.00;0.62;3.27;2.70;;;26.70;21.20;;;;;;2245388;61;20844;-54
2022/05/09 10:39:14;0.00;0.00;0.62;0.00;0.00;0.62;7.80;2.67;;;26.70;21.60;;;;;;2247569;61;20773;-57
2022/05/09 10:42:02;0.00;0.00;0.62;0.00;0.00;0.62;4.00;2.80;;;26.70;21.20;;;;;;2247683;61;20360;-53
2022/05/09 10:44:55;0.00;0.00;0.62;0.00;0.00;0.62;2.87;2.33;;;26.70;21.10;;;;;;2249277;61;20971;-60
2022/05/09 10:47:47;0.00;0.00;0.62;0.00;0.00;0.62;3.27;2.40;;;26.80;21.10;;;;;;2248984;61;20360;-60
2022/05/09 10:50:42;0.00;0.00;0.62;0.00;0.00;0.62;3.80;2.07;;;26.80;21.10;;;;;;2247944;61;20371;-61
2022/05/09 10:53:40;0.00;0.00;0.62;0.00;0.00;0.62;3.37;2.23;;;26.80;21.10;;;;;;2248539;61;20392;-61
2022/05/09 10:56:29;0.00;0.00;0.62;0.00;0.00;0.62;3.00;2.13;;;26.80;21.10;;;;;;2248232;61;20415;-61
2022/05/09 10:59:21;0.00;0.00;0.62;0.00;0.00;0.62;3.60;2.50;;;26.90;21.20;;;;;;2254010;61;20372;-61
2022/05/09 11:02:17;0.00;0.00;0.62;0.00;0.00;0.62;3.53;2.50;;;26.90;21.20;;;;;;2248399;61;20972;-61
2022/05/09 11:05:03;0.00;0.00;0.62;0.00;0.00;0.62;3.10;2.10;;;26.90;21.20;;;;;;2253783;61;20415;-61
2022/05/09 11:07:58;0.00;0.00;0.62;0.00;0.00;0.62;4.37;2.70;;;26.90;21.20;;;;;;2248442;61;20360;-61
2022/05/09 11:10:50;0.00;0.00;0.62;0.00;0.00;0.62;2.43;2.00;;;26.90;21.20;;;;;;2248565;61;20880;-61
2022/05/09 11:13:50;0.00;0.00;0.62;0.00;0.00;0.62;3.63;2.33;;;27.00;21.20;;;;;;2248760;61;20943;-61